sensor_id;sensor_type;location;lat;lon;timestamp;pressure;altitude;pressure_sealevel;temperature;humidity
21111;BME280;10713;51.912;4.494;2023-04-20T00:01:36;102359.66;;;8.00;56.68
21111;BME280;10713;51.912;4.494;2023-04-20T00:04:01;102353.53;;;8.03;57.10
21111;BME280;10713;51.912;4.494;2023-04-20T00:06:27;102353.53;;;8.04;56.29
21111;BME280;10713;51.912;4.494;2023-04-20T00:08:57;102357.06;;;7.97;55.58
21111;BME280;10713;51.912;4.494;2023-04-20T00:11:22;102345.72;;;7.87;56.62
21111;BME280;10713;51.912;4.494;2023-04-20T00:13:47;102356.22;;;7.90;57.81
21111;BME280;10713;51.912;4.494;2023-04-20T00:16:13;102347.47;;;7.90;57.00
21111;BME280;10713;51.912;4.494;2023-04-20T00:18:38;102342.19;;;7.92;59.58
21111;BME280;10713;51.912;4.494;2023-04-20T00:21:04;102346.56;;;7.91;57.55
21111;BME280;10713;51.912;4.494;2023-04-20T00:23:30;102344.78;;;7.96;60.02
21111;BME280;10713;51.912;4.494;2023-04-20T00:25:55;102339.50;;;7.98;56.99
21111;BME280;10713;51.912;4.494;2023-04-20T00:28:21;102339.56;;;7.90;56.72
21111;BME280;10713;51.912;4.494;2023-04-20T00:30:46;102333.44;;;7.85;56.60
21111;BME280;10713;51.912;4.494;2023-04-20T00:33:11;102339.59;;;7.78;56.72
21111;BME280;10713;51.912;4.494;2023-04-20T00:35:37;102337.00;;;7.72;56.54
21111;BME280;10713;51.912;4.494;2023-04-20T00:38:02;102340.50;;;7.74;55.26
21111;BME280;10713;51.912;4.494;2023-04-20T00:40:27;102349.28;;;7.71;55.12
21111;BME280;10713;51.912;4.494;2023-04-20T00:42:53;102335.25;;;7.71;54.84
21111;BME280;10713;51.912;4.494;2023-04-20T00:45:18;102324.75;;;7.71;55.14
21111;BME280;10713;51.912;4.494;2023-04-20T00:47:46;102326.53;;;7.67;54.59
21111;BME280;10713;51.912;4.494;2023-04-20T00:50:11;102337.88;;;7.66;55.99
21111;BME280;10713;51.912;4.494;2023-04-20T00:52:37;102323.00;;;7.63;55.62
21111;BME280;10713;51.912;4.494;2023-04-20T00:55:03;102323.88;;;7.62;56.82
21111;BME280;10713;51.912;4.494;2023-04-20T00:57:29;102321.25;;;7.62;57.25
21111;BME280;10713;51.912;4.494;2023-04-20T00:59:55;102320.38;;;7.65;57.83
21111;BME280;10713;51.912;4.494;2023-04-20T01:02:20;102315.09;;;7.66;58.37
21111;BME280;10713;51.912;4.494;2023-04-20T01:04:46;102303.72;;;7.71;59.93
21111;BME280;10713;51.912;4.494;2023-04-20T01:07:12;102311.53;;;7.83;60.07
21111;BME280;10713;51.912;4.494;2023-04-20T01:09:37;102304.53;;;7.80;59.34
21111;BME280;10713;51.912;4.494;2023-04-20T01:12:04;102297.53;;;7.82;62.24
21111;BME280;10713;51.912;4.494;2023-04-20T01:14:29;102294.88;;;7.88;63.76
21111;BME280;10713;51.912;4.494;2023-04-20T01:16:55;102290.47;;;7.94;62.50
21111;BME280;10713;51.912;4.494;2023-04-20T01:19:20;102280.81;;;7.94;66.65
21111;BME280;10713;51.912;4.494;2023-04-20T01:21:46;102281.66;;;8.01;69.10
21111;BME280;10713;51.912;4.494;2023-04-20T01:24:12;102279.00;;;8.10;71.13
21111;BME280;10713;51.912;4.494;2023-04-20T01:26:37;102273.63;;;8.21;74.98
21111;BME280;10713;51.912;4.494;2023-04-20T01:29:03;102269.38;;;8.04;71.25
21111;BME280;10713;51.912;4.494;2023-04-20T01:31:29;102249.19;;;8.05;73.56
21111;BME280;10713;51.912;4.494;2023-04-20T01:33:54;102259.75;;;8.00;74.75
21111;BME280;10713;51.912;4.494;2023-04-20T01:36:20;102260.63;;;8.02;75.01
21111;BME280;10713;51.912;4.494;2023-04-20T01:38:45;102256.22;;;8.07;79.36
21111;BME280;10713;51.912;4.494;2023-04-20T01:41:10;102252.69;;;8.08;72.79
21111;BME280;10713;51.912;4.494;2023-04-20T01:43:37;102246.50;;;8.12;80.05
21111;BME280;10713;51.912;4.494;2023-04-20T01:46:03;102238.63;;;8.16;80.03
21111;BME280;10713;51.912;4.494;2023-04-20T01:48:29;102245.47;;;8.37;95.51
21111;BME280;10713;51.912;4.494;2023-04-20T01:50:54;102234.94;;;8.43;95.07
21111;BME280;10713;51.912;4.494;2023-04-20T01:53:20;102239.22;;;8.54;91.83
21111;BME280;10713;51.912;4.494;2023-04-20T01:55:46;102233.97;;;8.53;88.72
21111;BME280;10713;51.912;4.494;2023-04-20T01:58:11;102233.06;;;8.59;99.25
21111;BME280;10713;51.912;4.494;2023-04-20T02:00:37;102231.25;;;8.62;93.93
21111;BME280;10713;51.912;4.494;2023-04-20T02:03:02;102222.41;;;8.69;99.17
21111;BME280;10713;51.912;4.494;2023-04-20T02:05:27;102222.44;;;8.66;97.92
21111;BME280;10713;51.912;4.494;2023-04-20T02:07:53;102226.06;;;8.56;100.00
21111;BME280;10713;51.912;4.494;2023-04-20T02:10:18;102225.09;;;8.65;100.00
21111;BME280;10713;51.912;4.494;2023-04-20T02:12:44;102215.56;;;8.53;100.00
21111;BME280;10713;51.912;4.494;2023-04-20T02:15:09;102218.13;;;8.57;100.00
21111;BME280;10713;51.912;4.494;2023-04-20T02:17:34;102224.28;;;8.56;100.00
21111;BME280;10713;51.912;4.494;2023-04-20T02:20:03;102218.22;;;8.48;100.00
21111;BME280;10713;51.912;4.494;2023-04-20T02:22:33;102208.56;;;8.50;100.00
21111;BME280;10713;51.912;4.494;2023-04-20T02:25:00;102218.97;;;8.63;100.00
21111;BME280;10713;51.912;4.494;2023-04-20T02:27:26;102206.59;;;8.71;100.00
21111;BME280;10713;51.912;4.494;2023-04-20T02:29:52;102203.06;;;8.73;100.00
21111;BME280;10713;51.912;4.494;2023-04-20T02:32:17;102200.41;;;8.76;100.00
21111;BME280;10713;51.912;4.494;2023-04-20T02:34:42;102193.34;;;8.80;100.00
21111;BME280;10713;51.912;4.494;2023-04-20T02:37:08;102191.66;;;8.74;100.00
21111;BME280;10713;51.912;4.494;2023-04-20T02:39:33;102195.03;;;8.84;100.00
21111;BME280;10713;51.912;4.494;2023-04-20T02:41:59;102190.69;;;8.83;100.00
21111;BME280;10713;51.912;4.494;2023-04-20T02:44:24;102188.19;;;8.71;100.00
21111;BME280;10713;51.912;4.494;2023-04-20T02:46:50;102195.28;;;8.64;100.00
21111;BME280;10713;51.912;4.494;2023-04-20T02:49:15;102183.03;;;8.55;100.00
21111;BME280;10713;51.912;4.494;2023-04-20T02:51:40;102181.31;;;8.54;100.00
21111;BME280;10713;51.912;4.494;2023-04-20T02:54:06;102171.59;;;8.61;100.00
21111;BME280;10713;51.912;4.494;2023-04-20T02:56:31;102175.09;;;8.65;100.00
21111;BME280;10713;51.912;4.494;2023-04-20T02:58:56;102169.75;;;8.69;100.00
21111;BME280;10713;51.912;4.494;2023-04-20T03:01:22;102172.47;;;8.62;100.00
21111;BME280;10713;51.912;4.494;2023-04-20T03:03:47;102169.84;;;8.62;100.00
21111;BME280;10713;51.912;4.494;2023-04-20T03:06:13;102162.03;;;8.52;100.00
21111;BME280;10713;51.912;4.494;2023-04-20T03:08:38;102169.94;;;8.49;100.00
21111;BME280;10713;51.912;4.494;2023-04-20T03:11:04;102168.25;;;8.45;100.00
21111;BME280;10713;51.912;4.494;2023-04-20T03:13:30;102171.69;;;8.53;100.00
21111;BME280;10713;51.912;4.494;2023-04-20T03:15:55;102170.75;;;8.59;100.00
21111;BME280;10713;51.912;4.494;2023-04-20T03:18:20;102162.75;;;8.68;100.00
21111;BME280;10713;51.912;4.494;2023-04-20T03:20:46;102157.50;;;8.68;100.00
21111;BME280;10713;51.912;4.494;2023-04-20T03:23:11;102154.72;;;8.82;100.00
21111;BME280;10713;51.912;4.494;2023-04-20T03:25:36;102156.34;;;8.92;100.00
21111;BME280;10713;51.912;4.494;2023-04-20T03:28:02;102156.47;;;8.82;100.00
21111;BME280;10713;51.912;4.494;2023-04-20T03:30:27;102151.25;;;8.78;100.00
21111;BME280;10713;51.912;4.494;2023-04-20T03:32:53;102146.78;;;8.85;100.00
21111;BME280;10713;51.912;4.494;2023-04-20T03:35:18;102142.34;;;8.89;100.00
21111;BME280;10713;51.912;4.494;2023-04-20T03:37:45;102143.31;;;8.80;100.00
21111;BME280;10713;51.912;4.494;2023-04-20T03:40:10;102144.97;;;8.90;100.00
21111;BME280;10713;51.912;4.494;2023-04-20T03:42:36;102134.31;;;8.99;100.00
21111;BME280;10713;51.912;4.494;2023-04-20T03:45:02;102126.50;;;8.93;100.00
21111;BME280;10713;51.912;4.494;2023-04-20T03:47:27;102129.84;;;9.08;100.00
21111;BME280;10713;51.912;4.494;2023-04-20T03:49:53;102118.34;;;9.12;100.00
21111;BME280;10713;51.912;4.494;2023-04-20T03:52:18;102125.34;;;9.14;100.00
21111;BME280;10713;51.912;4.494;2023-04-20T03:54:44;102115.75;;;9.10;100.00
21111;BME280;10713;51.912;4.494;2023-04-20T03:57:09;102106.94;;;9.11;100.00
21111;BME280;10713;51.912;4.494;2023-04-20T03:59:34;102113.03;;;9.15;100.00
21111;BME280;10713;51.912;4.494;2023-04-20T04:02:01;102113.94;;;9.14;100.00
21111;BME280;10713;51.912;4.494;2023-04-20T04:04:26;102107.78;;;9.15;100.00
21111;BME280;10713;51.912;4.494;2023-04-20T04:06:51;102101.59;;;9.17;100.00
21111;BME280;10713;51.912;4.494;2023-04-20T04:09:17;102099.91;;;9.13;100.00
21111;BME280;10713;51.912;4.494;2023-04-20T04:11:42;102102.50;;;9.15;100.00
21111;BME280;10713;51.912;4.494;2023-04-20T04:14:07;102105.25;;;9.06;100.00
21111;BME280;10713;51.912;4.494;2023-04-20T04:16:33;102107.84;;;9.09;100.00
21111;BME280;10713;51.912;4.494;2023-04-20T04:18:58;102101.72;;;9.08;100.00
21111;BME280;10713;51.912;4.494;2023-04-20T04:21:24;102100.72;;;9.17;100.00
21111;BME280;10713;51.912;4.494;2023-04-20T04:23:49;102097.22;;;9.16;100.00
21111;BME280;10713;51.912;4.494;2023-04-20T04:26:15;102083.09;;;9.22;100.00
21111;BME280;10713;51.912;4.494;2023-04-20T04:28:42;102077.78;;;9.23;100.00
21111;BME280;10713;51.912;4.494;2023-04-20T04:31:10;102074.19;;;9.29;100.00
21111;BME280;10713;51.912;4.494;2023-04-20T04:33:36;102068.03;;;9.32;100.00
21111;BME280;10713;51.912;4.494;2023-04-20T04:36:02;102076.75;;;9.35;100.00
21111;BME280;10713;51.912;4.494;2023-04-20T04:38:28;102073.25;;;9.36;100.00
21111;BME280;10713;51.912;4.494;2023-04-20T04:40:53;102063.56;;;9.35;100.00
21111;BME280;10713;51.912;4.494;2023-04-20T04:43:19;102060.16;;;9.30;100.00
21111;BME280;10713;51.912;4.494;2023-04-20T04:45:44;102056.63;;;9.30;100.00
21111;BME280;10713;51.912;4.494;2023-04-20T04:48:10;102063.69;;;9.28;100.00
21111;BME280;10713;51.912;4.494;2023-04-20T04:50:39;102057.44;;;9.36;100.00
21111;BME280;10713;51.912;4.494;2023-04-20T04:53:05;102039.78;;;9.41;100.00
21111;BME280;10713;51.912;4.494;2023-04-20T04:55:30;102030.97;;;9.41;100.00
21111;BME280;10713;51.912;4.494;2023-04-20T04:57:55;102039.75;;;9.43;100.00
21111;BME280;10713;51.912;4.494;2023-04-20T05:00:21;102043.28;;;9.40;100.00
21111;BME280;10713;51.912;4.494;2023-04-20T05:02:47;102039.69;;;9.46;100.00
21111;BME280;10713;51.912;4.494;2023-04-20T05:05:13;102032.66;;;9.48;100.00
21111;BME280;10713;51.912;4.494;2023-04-20T05:07:39;102031.78;;;9.47;100.00
21111;BME280;10713;51.912;4.494;2023-04-20T05:10:05;102013.34;;;9.46;100.00
21111;BME280;10713;51.912;4.494;2023-04-20T05:12:31;102018.50;;;9.54;100.00
21111;BME280;10713;51.912;4.494;2023-04-20T05:14:56;102014.91;;;9.58;100.00
21111;BME280;10713;51.912;4.494;2023-04-20T05:17:22;102015.75;;;9.60;100.00
21111;BME280;10713;51.912;4.494;2023-04-20T05:19:47;102014.19;;;9.46;100.00
21111;BME280;10713;51.912;4.494;2023-04-20T05:22:12;102015.94;;;9.49;100.00
21111;BME280;10713;51.912;4.494;2023-04-20T05:24:38;102012.38;;;9.53;100.00
21111;BME280;10713;51.912;4.494;2023-04-20T05:27:03;102003.53;;;9.56;100.00
21111;BME280;10713;51.912;4.494;2023-04-20T05:29:29;101995.53;;;9.60;100.00
21111;BME280;10713;51.912;4.494;2023-04-20T05:31:54;101999.84;;;9.66;100.00
21111;BME280;10713;51.912;4.494;2023-04-20T05:34:19;101999.63;;;9.78;100.00
21111;BME280;10713;51.912;4.494;2023-04-20T05:36:45;101985.50;;;9.82;100.00
21111;BME280;10713;51.912;4.494;2023-04-20T05:39:11;101993.28;;;9.88;100.00
21111;BME280;10713;51.912;4.494;2023-04-20T05:41:37;102005.44;;;9.99;100.00
21111;BME280;10713;51.912;4.494;2023-04-20T05:44:03;101994.09;;;9.92;100.00
21111;BME280;10713;51.912;4.494;2023-04-20T05:46:28;101994.25;;;9.84;100.00
21111;BME280;10713;51.912;4.494;2023-04-20T05:48:54;101991.53;;;9.89;100.00
21111;BME280;10713;51.912;4.494;2023-04-20T05:51:19;102002.06;;;9.89;100.00
21111;BME280;10713;51.912;4.494;2023-04-20T05:53:46;101994.28;;;9.81;100.00
21111;BME280;10713;51.912;4.494;2023-04-20T05:56:11;101995.97;;;9.85;100.00
21111;BME280;10713;51.912;4.494;2023-04-20T05:58:37;102003.03;;;9.83;100.00
21111;BME280;10713;51.912;4.494;2023-04-20T06:01:03;102002.16;;;9.84;100.00
21111;BME280;10713;51.912;4.494;2023-04-20T06:03:29;101999.88;;;9.63;100.00
21111;BME280;10713;51.912;4.494;2023-04-20T06:05:55;102001.66;;;9.61;100.00
21111;BME280;10713;51.912;4.494;2023-04-20T06:08:20;101991.97;;;9.64;100.00
21111;BME280;10713;51.912;4.494;2023-04-20T06:10:45;101987.84;;;9.48;100.00
21111;BME280;10713;51.912;4.494;2023-04-20T06:13:11;101998.16;;;9.60;100.00
21111;BME280;10713;51.912;4.494;2023-04-20T06:15:36;102001.75;;;9.56;100.00
21111;BME280;10713;51.912;4.494;2023-04-20T06:18:02;101999.34;;;9.42;100.00
21111;BME280;10713;51.912;4.494;2023-04-20T06:20:27;102001.44;;;9.22;100.00
21111;BME280;10713;51.912;4.494;2023-04-20T06:22:52;101992.00;;;9.06;100.00
21111;BME280;10713;51.912;4.494;2023-04-20T06:25:18;102000.75;;;9.08;100.00
21111;BME280;10713;51.912;4.494;2023-04-20T06:27:44;102017.47;;;9.05;100.00
21111;BME280;10713;51.912;4.494;2023-04-20T06:30:10;101997.50;;;8.89;100.00
21111;BME280;10713;51.912;4.494;2023-04-20T06:32:35;101996.88;;;8.70;100.00
21111;BME280;10713;51.912;4.494;2023-04-20T06:35:02;101995.25;;;8.60;100.00
21111;BME280;10713;51.912;4.494;2023-04-20T06:37:28;101988.00;;;8.77;100.00
21111;BME280;10713;51.912;4.494;2023-04-20T06:39:53;101972.03;;;8.89;100.00
21111;BME280;10713;51.912;4.494;2023-04-20T06:42:19;101986.78;;;9.01;100.00
21111;BME280;10713;51.912;4.494;2023-04-20T06:44:45;101975.53;;;8.90;100.00
21111;BME280;10713;51.912;4.494;2023-04-20T06:47:10;101976.53;;;8.81;100.00
21111;BME280;10713;51.912;4.494;2023-04-20T06:49:36;101969.72;;;8.68;100.00
21111;BME280;10713;51.912;4.494;2023-04-20T06:52:03;101966.19;;;8.69;100.00
21111;BME280;10713;51.912;4.494;2023-04-20T06:54:28;101964.31;;;8.75;100.00
21111;BME280;10713;51.912;4.494;2023-04-20T06:56:54;101960.97;;;8.67;100.00
21111;BME280;10713;51.912;4.494;2023-04-20T06:59:20;101959.91;;;8.77;100.00
21111;BME280;10713;51.912;4.494;2023-04-20T07:01:45;101964.13;;;8.91;100.00
21111;BME280;10713;51.912;4.494;2023-04-20T07:04:11;101955.19;;;9.02;100.00
21111;BME280;10713;51.912;4.494;2023-04-20T07:06:36;101960.63;;;8.90;100.00
21111;BME280;10713;51.912;4.494;2023-04-20T07:09:01;101962.38;;;8.90;100.00
21111;BME280;10713;51.912;4.494;2023-04-20T07:11:28;101955.28;;;8.95;100.00
21111;BME280;10713;51.912;4.494;2023-04-20T07:13:53;101955.47;;;8.81;100.00
21111;BME280;10713;51.912;4.494;2023-04-20T07:16:18;101951.78;;;8.94;100.00
21111;BME280;10713;51.912;4.494;2023-04-20T07:18:44;101956.28;;;8.88;100.00
21111;BME280;10713;51.912;4.494;2023-04-20T07:21:09;101953.88;;;8.69;100.00
21111;BME280;10713;51.912;4.494;2023-04-20T07:23:35;101959.38;;;8.52;100.00
21111;BME280;10713;51.912;4.494;2023-04-20T07:26:00;101963.00;;;8.45;100.00
21111;BME280;10713;51.912;4.494;2023-04-20T07:28:25;101962.22;;;8.34;100.00
21111;BME280;10713;51.912;4.494;2023-04-20T07:30:51;101969.28;;;8.30;100.00
21111;BME280;10713;51.912;4.494;2023-04-20T07:33:16;101983.41;;;8.20;100.00
21111;BME280;10713;51.912;4.494;2023-04-20T07:35:41;101972.03;;;8.20;100.00
21111;BME280;10713;51.912;4.494;2023-04-20T07:38:08;101972.13;;;8.09;100.00
21111;BME280;10713;51.912;4.494;2023-04-20T07:40:34;101988.84;;;8.05;100.00
21111;BME280;10713;51.912;4.494;2023-04-20T07:42:59;101986.34;;;7.89;100.00
21111;BME280;10713;51.912;4.494;2023-04-20T07:45:24;101997.97;;;7.70;100.00
21111;BME280;10713;51.912;4.494;2023-04-20T07:47:50;101994.69;;;7.40;100.00
21111;BME280;10713;51.912;4.494;2023-04-20T07:50:16;101991.34;;;7.21;100.00
21111;BME280;10713;51.912;4.494;2023-04-20T07:52:43;101997.53;;;7.08;100.00
21111;BME280;10713;51.912;4.494;2023-04-20T07:55:09;101996.75;;;6.95;100.00
21111;BME280;10713;51.912;4.494;2023-04-20T07:57:36;101999.41;;;6.91;100.00
21111;BME280;10713;51.912;4.494;2023-04-20T08:00:02;102001.13;;;6.92;100.00
21111;BME280;10713;51.912;4.494;2023-04-20T08:02:31;101997.53;;;7.08;100.00
21111;BME280;10713;51.912;4.494;2023-04-20T08:04:56;102013.22;;;7.17;100.00
21111;BME280;10713;51.912;4.494;2023-04-20T08:07:21;102008.91;;;7.10;100.00
21111;BME280;10713;51.912;4.494;2023-04-20T08:09:48;102011.53;;;7.10;100.00
21111;BME280;10713;51.912;4.494;2023-04-20T08:12:13;102016.69;;;7.27;100.00
21111;BME280;10713;51.912;4.494;2023-04-20T08:14:39;102002.78;;;7.08;100.00
21111;BME280;10713;51.912;4.494;2023-04-20T08:17:05;102011.59;;;6.95;100.00
21111;BME280;10713;51.912;4.494;2023-04-20T08:19:30;102029.09;;;6.99;100.00
21111;BME280;10713;51.912;4.494;2023-04-20T08:21:56;102024.78;;;6.89;100.00
21111;BME280;10713;51.912;4.494;2023-04-20T08:24:21;102023.13;;;6.66;100.00
21111;BME280;10713;51.912;4.494;2023-04-20T08:26:46;102023.16;;;6.60;100.00
21111;BME280;10713;51.912;4.494;2023-04-20T08:29:12;102017.94;;;6.51;100.00
21111;BME280;10713;51.912;4.494;2023-04-20T08:31:37;102031.03;;;6.57;100.00
21111;BME280;10713;51.912;4.494;2023-04-20T08:34:03;102028.47;;;6.40;100.00
21111;BME280;10713;51.912;4.494;2023-04-20T08:36:28;102018.91;;;6.21;100.00
21111;BME280;10713;51.912;4.494;2023-04-20T08:39:03;102011.91;;;6.30;100.00
21111;BME280;10713;51.912;4.494;2023-04-20T08:41:29;102016.13;;;6.70;100.00
21111;BME280;10713;51.912;4.494;2023-04-20T08:43:55;102009.03;;;6.89;100.00
21111;BME280;10713;51.912;4.494;2023-04-20T08:46:21;102010.00;;;6.69;100.00
21111;BME280;10713;51.912;4.494;2023-04-20T08:48:47;102013.53;;;6.67;100.00
21111;BME280;10713;51.912;4.494;2023-04-20T08:51:14;102020.59;;;6.52;100.00
21111;BME280;10713;51.912;4.494;2023-04-20T08:53:41;102014.41;;;6.55;100.00
21111;BME280;10713;51.912;4.494;2023-04-20T08:56:06;102020.56;;;6.59;100.00
21111;BME280;10713;51.912;4.494;2023-04-20T08:58:32;102010.88;;;6.64;100.00
21111;BME280;10713;51.912;4.494;2023-04-20T09:00:58;102006.50;;;6.69;100.00
21111;BME280;10713;51.912;4.494;2023-04-20T09:03:36;102025.72;;;6.74;100.00
21111;BME280;10713;51.912;4.494;2023-04-20T09:06:05;102006.50;;;6.73;100.00
21111;BME280;10713;51.912;4.494;2023-04-20T09:08:39;101992.38;;;6.91;100.00
21111;BME280;10713;51.912;4.494;2023-04-20T09:11:05;102004.63;;;6.92;100.00
21111;BME280;10713;51.912;4.494;2023-04-20T09:13:31;102002.00;;;6.92;100.00
21111;BME280;10713;51.912;4.494;2023-04-20T09:15:56;102005.47;;;6.97;100.00
21111;BME280;10713;51.912;4.494;2023-04-20T09:18:22;102003.69;;;7.06;100.00
21111;BME280;10713;51.912;4.494;2023-04-20T09:20:49;102002.84;;;7.02;100.00
21111;BME280;10713;51.912;4.494;2023-04-20T09:23:17;102000.97;;;7.19;100.00
21111;BME280;10713;51.912;4.494;2023-04-20T09:25:45;101997.34;;;7.36;100.00
21111;BME280;10713;51.912;4.494;2023-04-20T09:28:12;101983.16;;;7.57;100.00
21111;BME280;10713;51.912;4.494;2023-04-20T09:33:03;101978.75;;;7.62;100.00
21111;BME280;10713;51.912;4.494;2023-04-20T09:35:29;101996.31;;;7.57;100.00
21111;BME280;10713;51.912;4.494;2023-04-20T09:37:55;101989.25;;;7.62;100.00
21111;BME280;10713;51.912;4.494;2023-04-20T09:40:23;101990.00;;;7.76;100.00
21111;BME280;10713;51.912;4.494;2023-04-20T09:42:51;101989.09;;;7.80;100.00
21111;BME280;10713;51.912;4.494;2023-04-20T09:45:17;101988.28;;;7.74;100.00
21111;BME280;10713;51.912;4.494;2023-04-20T09:47:43;101975.97;;;7.79;100.00
21111;BME280;10713;51.912;4.494;2023-04-20T09:50:11;101969.88;;;7.74;100.00
21111;BME280;10713;51.912;4.494;2023-04-20T09:52:37;101962.03;;;7.69;100.00
21111;BME280;10713;51.912;4.494;2023-04-20T09:55:04;101964.63;;;7.74;100.00
21111;BME280;10713;51.912;4.494;2023-04-20T09:57:31;101950.59;;;7.76;100.00
21111;BME280;10713;51.912;4.494;2023-04-20T09:59:57;101949.56;;;7.93;100.00
21111;BME280;10713;51.912;4.494;2023-04-20T10:02:24;101947.38;;;8.27;100.00
21111;BME280;10713;51.912;4.494;2023-04-20T10:04:59;101949.88;;;8.42;100.00
21111;BME280;10713;51.912;4.494;2023-04-20T10:07:27;101951.56;;;8.48;100.00
21111;BME280;10713;51.912;4.494;2023-04-20T10:10:10;101950.53;;;8.58;100.00
21111;BME280;10713;51.912;4.494;2023-04-20T10:12:49;101937.31;;;8.63;100.00
21111;BME280;10713;51.912;4.494;2023-04-20T10:15:15;101936.44;;;8.62;100.00
21111;BME280;10713;51.912;4.494;2023-04-20T10:17:41;101935.44;;;8.71;100.00
21111;BME280;10713;51.912;4.494;2023-04-20T10:22:45;101920.56;;;8.68;100.00
21111;BME280;10713;51.912;4.494;2023-04-20T10:25:22;101912.72;;;8.64;100.00
21111;BME280;10713;51.912;4.494;2023-04-20T10:27:57;101928.56;;;8.62;100.00
21111;BME280;10713;51.912;4.494;2023-04-20T10:30:24;101918.19;;;9.09;100.00
21111;BME280;10713;51.912;4.494;2023-04-20T10:35:50;101916.81;;;9.88;100.00
21111;BME280;10713;51.912;4.494;2023-04-20T10:38:34;101922.69;;;9.55;100.00
21111;BME280;10713;51.912;4.494;2023-04-20T10:41:10;101916.09;;;9.31;100.00
21111;BME280;10713;51.912;4.494;2023-04-20T10:43:35;101923.19;;;9.25;100.00
21111;BME280;10713;51.912;4.494;2023-04-20T10:46:20;101906.22;;;8.89;100.00
21111;BME280;10713;51.912;4.494;2023-04-20T10:48:54;101906.53;;;9.23;100.00
21111;BME280;10713;51.912;4.494;2023-04-20T10:51:20;101893.56;;;9.62;100.00
21111;BME280;10713;51.912;4.494;2023-04-20T10:54:05;101899.19;;;9.90;100.00
21111;BME280;10713;51.912;4.494;2023-04-20T10:56:44;101889.03;;;10.14;100.00
21111;BME280;10713;51.912;4.494;2023-04-20T10:59:14;101905.88;;;10.08;100.00
21111;BME280;10713;51.912;4.494;2023-04-20T11:01:40;101892.72;;;9.62;100.00
21111;BME280;10713;51.912;4.494;2023-04-20T11:04:07;101883.16;;;9.55;100.00
21111;BME280;10713;51.912;4.494;2023-04-20T11:06:33;101881.78;;;9.80;100.00
21111;BME280;10713;51.912;4.494;2023-04-20T11:08:58;101877.38;;;10.24;100.00
21111;BME280;10713;51.912;4.494;2023-04-20T11:11:26;101872.94;;;10.26;100.00
21111;BME280;10713;51.912;4.494;2023-04-20T11:14:04;101877.91;;;9.98;100.00
21111;BME280;10713;51.912;4.494;2023-04-20T11:16:30;101873.03;;;9.78;100.00
21111;BME280;10713;51.912;4.494;2023-04-20T11:18:56;101872.81;;;9.44;100.00
21111;BME280;10713;51.912;4.494;2023-04-20T11:21:22;101883.00;;;9.13;100.00
21111;BME280;10713;51.912;4.494;2023-04-20T11:23:48;101874.56;;;8.94;100.00
21111;BME280;10713;51.912;4.494;2023-04-20T11:26:14;101868.47;;;8.90;100.00
21111;BME280;10713;51.912;4.494;2023-04-20T11:28:52;101862.25;;;8.94;100.00
21111;BME280;10713;51.912;4.494;2023-04-20T11:31:18;101847.81;;;9.17;100.00
21111;BME280;10713;51.912;4.494;2023-04-20T11:33:43;101850.84;;;9.45;100.00
21111;BME280;10713;51.912;4.494;2023-04-20T11:36:20;101859.09;;;9.73;100.00
21111;BME280;10713;51.912;4.494;2023-04-20T11:38:47;101838.09;;;9.67;100.00
21111;BME280;10713;51.912;4.494;2023-04-20T11:41:12;101837.41;;;10.01;100.00
21111;BME280;10713;51.912;4.494;2023-04-20T11:43:37;101831.22;;;10.44;100.00
21111;BME280;10713;51.912;4.494;2023-04-20T11:46:18;101819.66;;;10.87;100.00
21111;BME280;10713;51.912;4.494;2023-04-20T11:48:45;101802.34;;;11.09;100.00
21111;BME280;10713;51.912;4.494;2023-04-20T11:51:12;101807.19;;;11.26;100.00
21111;BME280;10713;51.912;4.494;2023-04-20T11:53:38;101804.25;;;11.37;100.00
21111;BME280;10713;51.912;4.494;2023-04-20T11:56:03;101816.13;;;11.53;100.00
21111;BME280;10713;51.912;4.494;2023-04-20T11:58:29;101817.19;;;11.47;100.00
21111;BME280;10713;51.912;4.494;2023-04-20T12:00:55;101799.16;;;11.31;100.00
21111;BME280;10713;51.912;4.494;2023-04-20T12:03:21;101799.47;;;11.51;100.00
21111;BME280;10713;51.912;4.494;2023-04-20T12:05:46;101785.44;;;11.16;100.00
21111;BME280;10713;51.912;4.494;2023-04-20T12:08:11;101787.59;;;10.66;100.00
21111;BME280;10713;51.912;4.494;2023-04-20T12:10:37;101787.63;;;10.65;100.00
21111;BME280;10713;51.912;4.494;2023-04-20T12:13:04;101784.22;;;10.59;100.00
21111;BME280;10713;51.912;4.494;2023-04-20T12:15:29;101788.84;;;10.50;100.00
21111;BME280;10713;51.912;4.494;2023-04-20T12:17:55;101785.13;;;10.20;100.00
21111;BME280;10713;51.912;4.494;2023-04-20T12:20:20;101793.28;;;10.09;100.00
21111;BME280;10713;51.912;4.494;2023-04-20T12:22:45;101781.13;;;10.42;100.00
21111;BME280;10713;51.912;4.494;2023-04-20T12:25:11;101782.13;;;10.74;100.00
21111;BME280;10713;51.912;4.494;2023-04-20T12:27:36;101783.22;;;10.65;100.00
21111;BME280;10713;51.912;4.494;2023-04-20T12:30:02;101784.03;;;10.30;100.00
21111;BME280;10713;51.912;4.494;2023-04-20T12:32:28;101754.34;;;10.19;100.00
21111;BME280;10713;51.912;4.494;2023-04-20T12:34:53;101784.81;;;10.35;100.00
21111;BME280;10713;51.912;4.494;2023-04-20T12:37:19;101780.66;;;10.23;100.00
21111;BME280;10713;51.912;4.494;2023-04-20T12:39:44;101782.88;;;10.03;100.00
21111;BME280;10713;51.912;4.494;2023-04-20T12:42:10;101783.28;;;9.84;100.00
21111;BME280;10713;51.912;4.494;2023-04-20T12:44:35;101781.56;;;9.82;100.00
21111;BME280;10713;51.912;4.494;2023-04-20T12:47:00;101769.41;;;9.75;100.00
21111;BME280;10713;51.912;4.494;2023-04-20T12:49:26;101768.34;;;9.83;100.00
21111;BME280;10713;51.912;4.494;2023-04-20T12:51:51;101780.50;;;9.90;100.00
21111;BME280;10713;51.912;4.494;2023-04-20T12:54:16;101761.63;;;10.09;100.00